createdAt,value
2023-04-08T00:00:01.865Z,4.9651
2023-04-08T00:01:02.678Z,4.9777
2023-04-08T00:02:03.532Z,4.9611
2023-04-08T00:03:04.478Z,4.9606
2023-04-08T00:04:05.546Z,4.9685
2023-04-08T00:05:06.479Z,4.9728
2023-04-08T00:06:07.279Z,4.9872
2023-04-08T00:07:08.043Z,4.9725
2023-04-08T00:08:08.819Z,4.9723
2023-04-08T00:09:09.552Z,5.0175
2023-04-08T00:10:10.320Z,5.0093
2023-04-08T00:11:11.058Z,5.0123
2023-04-08T00:12:11.833Z,5.0056
2023-04-08T00:13:12.607Z,5.0246
2023-04-08T00:14:13.364Z,5.0192
2023-04-08T00:15:14.124Z,5.0188
2023-04-08T00:16:14.888Z,5.0111
2023-04-08T00:17:15.639Z,4.9957
2023-04-08T00:18:16.528Z,4.9907
2023-04-08T00:19:17.268Z,4.9787
2023-04-08T00:20:18.002Z,4.9745
2023-04-08T00:21:18.775Z,4.9715
2023-04-08T00:22:19.497Z,4.9696
2023-04-08T00:23:20.208Z,4.9908
2023-04-08T00:24:20.922Z,5.0029
2023-04-08T00:25:24.104Z,5.0293
2023-04-08T00:26:23.635Z,5.0645
2023-04-08T00:27:24.363Z,5.1081
2023-04-08T00:28:25.097Z,5.1427
2023-04-08T00:29:25.815Z,5.1277
2023-04-08T00:30:26.570Z,5.1385
2023-04-08T00:31:27.350Z,5.1483
2023-04-08T00:32:28.137Z,5.1536
2023-04-08T00:33:28.858Z,5.1668
2023-04-08T00:34:29.646Z,5.2043
2023-04-08T00:35:30.397Z,5.2333
2023-04-08T00:36:31.104Z,5.2165
2023-04-08T00:37:31.881Z,5.1780
2023-04-08T00:38:32.636Z,5.1117
2023-04-08T00:39:33.460Z,5.0937
2023-04-08T00:40:34.265Z,5.0656
2023-04-08T00:41:35.586Z,5.0261
2023-04-08T00:42:36.386Z,5.0118
2023-04-08T00:43:37.134Z,5.0076
2023-04-08T00:44:37.811Z,4.9917
2023-04-08T00:45:38.566Z,5.0048
2023-04-08T00:46:39.359Z,4.9863
2023-04-08T00:47:40.280Z,4.9866
2023-04-08T00:48:41.087Z,5.0077
2023-04-08T00:49:41.809Z,5.0302
2023-04-08T00:50:42.575Z,5.0484
2023-04-08T00:51:43.339Z,5.0719
2023-04-08T00:52:44.106Z,5.0867
2023-04-08T00:53:44.868Z,5.1146
2023-04-08T00:54:45.609Z,5.1461
2023-04-08T00:55:46.492Z,5.1203
2023-04-08T00:56:47.260Z,5.1370
2023-04-08T00:57:48.006Z,5.1637
2023-04-08T00:58:48.989Z,5.1695
2023-04-08T00:59:49.953Z,5.1609
2023-04-08T01:00:50.751Z,5.1287
2023-04-08T01:01:51.599Z,5.1185
2023-04-08T01:02:52.616Z,5.1104
2023-04-08T01:03:53.566Z,5.0691
2023-04-08T01:04:54.322Z,5.0484
2023-04-08T01:05:55.062Z,5.0322
2023-04-08T01:06:55.804Z,5.0007
2023-04-08T01:07:56.579Z,4.9797
2023-04-08T01:08:57.243Z,4.9788
2023-04-08T01:09:58.040Z,4.9869
2023-04-08T01:10:58.800Z,4.9715
2023-04-08T01:11:59.541Z,4.9646
2023-04-08T01:13:00.307Z,4.9983
2023-04-08T01:14:01.019Z,5.0208
2023-04-08T01:15:01.775Z,5.0291
2023-04-08T01:16:02.900Z,5.0194
2023-04-08T01:17:03.742Z,5.0402
2023-04-08T01:18:04.519Z,5.0285
2023-04-08T01:19:05.299Z,5.0387
2023-04-08T01:20:06.091Z,5.0638
2023-04-08T01:21:06.264Z,5.0690
2023-04-08T01:22:07.049Z,5.0707
2023-04-08T01:23:07.874Z,5.0891
2023-04-08T01:24:08.621Z,5.1066
2023-04-08T01:25:09.488Z,5.1462
2023-04-08T01:26:10.216Z,5.1689
2023-04-08T01:27:10.969Z,5.1517
2023-04-08T01:28:11.793Z,5.1178
2023-04-08T01:29:12.577Z,5.1403
2023-04-08T01:30:13.418Z,5.1454
2023-04-08T01:31:14.224Z,5.1660
2023-04-08T01:32:15.177Z,5.1501
2023-04-08T01:33:15.978Z,5.1777
2023-04-08T01:34:16.739Z,5.1898
2023-04-08T01:35:17.553Z,5.1756
2023-04-08T01:36:18.395Z,5.2056
2023-04-08T01:37:19.189Z,5.2175
2023-04-08T01:38:20.047Z,5.2231
2023-04-08T01:39:20.844Z,5.2223
2023-04-08T01:40:21.718Z,5.2519
2023-04-08T01:41:22.495Z,5.2647
2023-04-08T01:42:23.268Z,5.2862
2023-04-08T01:43:24.073Z,5.3129
2023-04-08T01:44:24.819Z,5.3356
2023-04-08T01:45:25.627Z,5.3713
2023-04-08T01:46:26.496Z,5.3880
2023-04-08T01:47:27.279Z,5.3730
2023-04-08T01:48:28.083Z,5.3771
2023-04-08T01:49:28.877Z,5.3310
2023-04-08T01:50:29.630Z,5.2744
2023-04-08T01:51:30.467Z,5.2132
2023-04-08T01:52:31.294Z,5.1862
2023-04-08T01:53:32.080Z,5.1167
2023-04-08T01:54:32.929Z,5.1168
2023-04-08T01:55:33.956Z,5.1479
2023-04-08T01:56:34.705Z,5.1631
2023-04-08T01:57:35.467Z,5.1474
2023-04-08T01:58:36.198Z,5.1437
2023-04-08T01:59:38.028Z,5.1638
2023-04-08T02:00:38.779Z,5.1679
2023-04-08T02:01:39.691Z,5.1565
2023-04-08T02:02:40.729Z,5.1360
2023-04-08T02:03:41.844Z,5.1087
2023-04-08T02:04:42.775Z,5.1280
2023-04-08T02:05:43.705Z,5.1246
2023-04-08T02:06:44.543Z,5.1380
2023-04-08T02:07:45.394Z,5.1452
2023-04-08T02:08:46.203Z,5.1566
2023-04-08T02:09:47.033Z,5.1631
2023-04-08T02:10:47.850Z,5.1822
2023-04-08T02:11:48.697Z,5.1807
2023-04-08T02:12:49.496Z,5.1767
2023-04-08T02:13:50.314Z,5.1978
2023-04-08T02:14:51.127Z,5.2046
2023-04-08T02:15:51.983Z,5.2021
2023-04-08T02:16:52.767Z,5.2070
2023-04-08T02:17:53.576Z,5.2085
2023-04-08T02:18:54.413Z,5.2171
2023-04-08T02:19:55.260Z,5.2081
2023-04-08T02:20:56.033Z,5.2017
2023-04-08T02:21:56.885Z,5.1958
2023-04-08T02:22:57.757Z,5.1975
2023-04-08T02:23:58.552Z,5.2052
2023-04-08T02:24:59.340Z,5.2352
2023-04-08T02:26:00.131Z,5.2708
2023-04-08T02:27:00.943Z,5.3028
2023-04-08T02:28:01.729Z,5.3051
2023-04-08T02:29:02.485Z,5.3169
2023-04-08T02:30:03.406Z,5.3091
2023-04-08T02:31:04.248Z,5.3393
2023-04-08T02:32:05.038Z,5.3450
2023-04-08T02:33:05.828Z,5.3670
2023-04-08T02:34:06.722Z,5.3778
2023-04-08T02:35:07.499Z,5.3987
2023-04-08T02:36:08.394Z,5.4107
2023-04-08T02:37:09.164Z,5.4290
2023-04-08T02:38:09.935Z,5.4175
2023-04-08T02:39:10.743Z,5.4090
2023-04-08T02:40:11.543Z,5.4078
2023-04-08T02:41:12.431Z,5.3809
2023-04-08T02:42:13.208Z,5.3564
2023-04-08T02:43:14.070Z,5.3552
2023-04-08T02:44:14.875Z,5.3690
2023-04-08T02:45:15.684Z,5.3972
2023-04-08T02:46:16.655Z,5.4168
2023-04-08T02:47:17.434Z,5.3892
2023-04-08T02:48:18.269Z,5.3795
2023-04-08T02:49:19.005Z,5.3822
2023-04-08T02:50:19.901Z,5.3602
2023-04-08T02:51:20.683Z,5.3513
2023-04-08T02:52:21.473Z,5.3443
2023-04-08T02:53:22.225Z,5.3368
2023-04-08T02:54:23.123Z,5.3489
2023-04-08T02:55:23.934Z,5.3590
2023-04-08T02:56:24.742Z,5.3646
2023-04-08T02:57:25.546Z,5.3894
2023-04-08T02:58:26.339Z,5.4027
2023-04-08T02:59:27.052Z,5.4147
2023-04-08T03:00:28.054Z,5.4129
2023-04-08T03:01:28.906Z,5.4254
2023-04-08T03:02:29.857Z,5.4226
2023-04-08T03:03:30.860Z,5.4282
2023-04-08T03:04:31.694Z,5.3857
2023-04-08T03:05:32.480Z,5.3825
2023-04-08T03:06:33.344Z,5.4626
2023-04-08T03:07:34.151Z,5.5366
2023-04-08T03:08:34.981Z,5.6023
2023-04-08T03:09:35.808Z,5.6376
2023-04-08T03:10:36.666Z,5.6211
2023-04-08T03:11:37.488Z,5.6002
2023-04-08T03:12:38.290Z,5.5813
2023-04-08T03:13:39.122Z,5.5211
2023-04-08T03:14:39.923Z,5.4843
2023-04-08T03:15:40.729Z,5.4199
2023-04-08T03:16:41.566Z,5.4457
2023-04-08T03:17:42.479Z,5.4588
2023-04-08T03:18:43.245Z,5.4542
2023-04-08T03:19:44.078Z,5.4441
2023-04-08T03:20:44.944Z,5.4420
2023-04-08T03:21:45.797Z,5.4180
2023-04-08T03:22:46.591Z,5.4051
2023-04-08T03:23:47.435Z,5.4244
2023-04-08T03:24:48.275Z,5.3861
2023-04-08T03:25:49.054Z,5.4072
2023-04-08T03:26:49.852Z,5.4196
2023-04-08T03:27:50.638Z,5.3316
2023-04-08T03:28:51.748Z,5.3330
2023-04-08T03:29:52.758Z,5.2994
2023-04-08T03:30:53.555Z,5.2370
2023-04-08T03:31:54.439Z,5.2465
2023-04-08T03:32:55.228Z,5.2697
2023-04-08T03:33:56.081Z,5.2882
2023-04-08T03:34:56.902Z,5.2609
2023-04-08T03:35:58.049Z,5.2643
2023-04-08T03:36:58.848Z,5.2665
2023-04-08T03:37:59.623Z,5.2840
2023-04-08T03:39:00.484Z,5.2938
2023-04-08T03:40:01.305Z,5.3172
2023-04-08T03:41:02.119Z,5.2866
2023-04-08T03:42:02.909Z,5.2511
2023-04-08T03:43:03.699Z,5.2767
2023-04-08T03:44:04.497Z,5.2784
2023-04-08T03:45:05.274Z,5.2163
2023-04-08T03:46:06.103Z,5.2164
2023-04-08T03:47:06.929Z,5.2460
2023-04-08T03:48:07.775Z,5.2143
2023-04-08T03:49:08.653Z,5.2032
2023-04-08T03:50:09.384Z,5.1987
2023-04-08T03:51:10.183Z,5.1862
2023-04-08T03:52:10.963Z,5.1235
2023-04-08T03:53:11.826Z,5.0548
2023-04-08T03:54:12.617Z,5.0886
2023-04-08T03:55:13.413Z,5.0541
2023-04-08T03:56:14.215Z,5.0683
2023-04-08T03:57:14.993Z,5.0839
2023-04-08T03:58:15.798Z,5.0301
2023-04-08T03:59:16.633Z,5.0246
2023-04-08T04:00:17.417Z,5.0203
2023-04-08T04:01:18.208Z,5.0222
2023-04-08T04:02:19.073Z,5.0536
2023-04-08T04:03:19.972Z,5.0317
2023-04-08T04:04:21.164Z,5.0452
2023-04-08T04:05:22.506Z,5.0326
2023-04-08T04:06:23.306Z,4.9433
2023-04-08T04:07:24.174Z,4.9336
2023-04-08T04:08:25.022Z,4.9250
2023-04-08T04:09:25.781Z,4.9389
2023-04-08T04:10:26.575Z,4.9268
2023-04-08T04:11:27.384Z,4.9192
2023-04-08T04:12:28.194Z,4.9270
2023-04-08T04:13:29.008Z,4.9489
2023-04-08T04:14:29.846Z,4.9659
2023-04-08T04:15:30.658Z,4.9945
2023-04-08T04:16:32.996Z,5.0051
2023-04-08T04:17:31.556Z,4.9785
2023-04-08T04:18:32.479Z,4.9661
2023-04-08T04:19:33.277Z,4.9724
2023-04-08T04:20:34.087Z,5.0017
2023-04-08T04:21:34.904Z,4.9515
2023-04-08T04:22:35.710Z,4.9626
2023-04-08T04:23:36.479Z,4.9734
2023-04-08T04:24:37.326Z,4.9647
2023-04-08T04:25:38.083Z,5.0031
2023-04-08T04:26:38.937Z,5.0503
2023-04-08T04:27:39.726Z,5.0383
2023-04-08T04:28:40.507Z,5.0666
2023-04-08T04:29:41.308Z,5.0332
2023-04-08T04:30:42.112Z,5.0397
2023-04-08T04:31:42.949Z,5.0265
2023-04-08T04:32:43.775Z,5.0283
2023-04-08T04:33:44.608Z,5.0436
2023-04-08T04:34:45.377Z,5.0680
2023-04-08T04:35:46.232Z,5.0742
2023-04-08T04:36:46.994Z,5.0720
2023-04-08T04:37:47.814Z,5.0443
2023-04-08T04:38:50.224Z,5.0237
2023-04-08T04:39:49.116Z,4.9987
2023-04-08T04:40:49.948Z,4.9804
2023-04-08T04:41:50.807Z,4.9698
2023-04-08T04:42:51.609Z,4.9870
2023-04-08T04:43:52.379Z,4.9783
2023-04-08T04:44:53.246Z,4.9963
2023-04-08T04:45:54.038Z,4.9989
2023-04-08T04:46:54.997Z,5.0187
2023-04-08T04:47:55.792Z,5.0564
2023-04-08T04:48:56.587Z,5.0496
2023-04-08T04:49:57.400Z,4.9876
2023-04-08T04:50:58.239Z,4.9830
2023-04-08T04:51:59.033Z,4.9913
2023-04-08T04:52:59.830Z,5.0180
2023-04-08T04:54:00.574Z,4.9300
2023-04-08T04:55:01.439Z,4.9617
2023-04-08T04:56:02.446Z,4.9170
2023-04-08T04:57:03.287Z,4.9177
2023-04-08T04:58:04.111Z,4.8545
2023-04-08T04:59:04.904Z,4.8628
2023-04-08T05:00:05.904Z,4.8843
2023-04-08T05:01:06.750Z,4.9112
2023-04-08T05:02:07.652Z,4.9245
2023-04-08T05:03:08.711Z,4.9463
2023-04-08T05:04:09.555Z,4.9565
2023-04-08T05:05:10.372Z,4.9452
2023-04-08T05:06:11.384Z,4.9676
2023-04-08T05:07:12.177Z,4.9625
2023-04-08T05:08:12.962Z,4.9892
2023-04-08T05:09:13.790Z,4.9395
2023-04-08T05:10:14.642Z,4.8781
2023-04-08T05:11:15.405Z,4.8997
2023-04-08T05:12:16.223Z,4.9582
2023-04-08T05:13:17.020Z,4.9562
2023-04-08T05:14:17.775Z,4.9832
2023-04-08T05:15:18.603Z,4.9762
2023-04-08T05:16:19.485Z,4.9909
2023-04-08T05:17:20.315Z,4.9745
2023-04-08T05:18:21.146Z,5.0222
2023-04-08T05:19:22.003Z,4.9951
2023-04-08T05:20:22.799Z,4.9712
2023-04-08T05:21:23.584Z,4.8900
2023-04-08T05:22:24.471Z,4.8895
2023-04-08T05:23:25.262Z,4.8936
2023-04-08T05:24:26.038Z,4.8728
2023-04-08T05:25:26.922Z,4.9113
2023-04-08T05:26:27.728Z,4.9246
2023-04-08T05:27:28.506Z,4.9486
2023-04-08T05:28:29.339Z,4.9494
2023-04-08T05:29:30.160Z,4.9187
2023-04-08T05:30:30.993Z,4.9264
2023-04-08T05:31:31.906Z,4.9316
2023-04-08T05:32:32.846Z,4.8920
2023-04-08T05:33:33.721Z,4.9094
2023-04-08T05:34:34.485Z,5.0035
2023-04-08T05:35:35.305Z,5.0533
2023-04-08T05:36:36.057Z,5.0585
2023-04-08T05:37:36.814Z,5.0126
2023-04-08T05:38:37.640Z,5.0215
2023-04-08T05:39:38.502Z,5.0294
2023-04-08T05:40:39.290Z,5.0570
2023-04-08T05:41:40.096Z,5.0864
2023-04-08T05:42:40.911Z,5.0727
2023-04-08T05:43:41.736Z,5.0746
2023-04-08T05:44:42.516Z,5.1162
2023-04-08T05:45:43.376Z,5.0642
2023-04-08T05:46:44.283Z,5.0454
2023-04-08T05:47:45.165Z,5.1029
2023-04-08T05:48:45.967Z,5.1118
2023-04-08T05:49:46.796Z,5.1369
2023-04-08T05:50:47.666Z,5.1911
2023-04-08T05:51:48.404Z,5.2016
2023-04-08T05:52:49.197Z,5.2160
2023-04-08T05:53:49.947Z,5.2363
2023-04-08T05:54:50.779Z,5.2781
2023-04-08T05:55:51.563Z,5.3020
2023-04-08T05:56:52.416Z,5.2489
2023-04-08T05:57:53.191Z,5.2806
2023-04-08T05:58:53.976Z,5.3039
2023-04-08T05:59:54.868Z,5.3239
2023-04-08T06:00:55.972Z,5.3092
2023-04-08T06:01:56.761Z,5.2183
2023-04-08T06:02:57.904Z,5.2695
2023-04-08T06:03:59.134Z,5.2673
2023-04-08T06:05:00.426Z,5.2495
2023-04-08T06:06:01.272Z,5.3330
2023-04-08T06:07:02.099Z,5.3411
2023-04-08T06:08:02.951Z,5.3475
2023-04-08T06:09:03.803Z,5.2919
2023-04-08T06:10:04.710Z,5.2571
2023-04-08T06:11:05.525Z,5.2676
2023-04-08T06:12:06.592Z,5.3080
2023-04-08T06:13:07.394Z,5.2970
2023-04-08T06:14:08.221Z,5.2814
2023-04-08T06:15:09.102Z,5.2893
2023-04-08T06:16:09.956Z,5.3305
2023-04-08T06:17:10.772Z,5.3376
2023-04-08T06:18:11.757Z,5.3422
2023-04-08T06:19:12.584Z,5.3704
2023-04-08T06:20:13.437Z,5.4257
2023-04-08T06:21:14.252Z,5.4487
2023-04-08T06:22:15.084Z,5.4681
2023-04-08T06:23:15.915Z,5.4693
2023-04-08T06:24:16.847Z,5.4955
2023-04-08T06:25:17.671Z,5.3789
2023-04-08T06:26:18.536Z,5.4722
2023-04-08T06:27:19.347Z,5.5310
2023-04-08T06:28:20.228Z,5.5700
2023-04-08T06:29:21.977Z,5.5852
2023-04-08T06:30:22.856Z,5.5658
2023-04-08T06:31:23.700Z,5.5576
2023-04-08T06:32:24.608Z,5.5311
2023-04-08T06:33:25.483Z,5.5909
2023-04-08T06:34:26.352Z,5.5835
2023-04-08T06:35:27.970Z,5.6037
2023-04-08T06:36:29.210Z,5.5956
2023-04-08T06:37:30.048Z,5.6112
2023-04-08T06:38:30.922Z,5.5879
2023-04-08T06:39:31.746Z,5.6033
2023-04-08T06:40:32.611Z,5.6155
2023-04-08T06:41:33.486Z,5.5996
2023-04-08T06:42:34.294Z,5.5572
2023-04-08T06:43:35.220Z,5.5742
2023-04-08T06:44:36.305Z,5.5850
2023-04-08T06:45:37.155Z,5.5622
2023-04-08T06:46:38.016Z,5.5949
2023-04-08T06:47:38.921Z,5.5909
2023-04-08T06:48:39.792Z,5.5951
2023-04-08T06:49:40.628Z,5.6287
2023-04-08T06:50:41.495Z,5.7028
2023-04-08T06:51:42.347Z,5.7420
2023-04-08T06:52:43.179Z,5.7618
2023-04-08T06:53:44.045Z,5.8401
2023-04-08T06:54:44.889Z,5.8910
2023-04-08T06:55:45.685Z,5.8167
2023-04-08T06:56:46.544Z,5.8111
2023-04-08T06:57:47.421Z,5.8167
2023-04-08T06:58:48.274Z,5.8170
2023-04-08T06:59:49.206Z,5.8501
2023-04-08T07:00:50.070Z,5.8825
2023-04-08T07:01:51.347Z,5.9162
2023-04-08T07:02:52.519Z,5.9421
2023-04-08T07:03:53.492Z,5.9887
2023-04-08T07:04:54.437Z,5.9146
2023-04-08T07:05:55.239Z,5.9680
2023-04-08T07:06:56.093Z,5.9792
2023-04-08T07:07:56.961Z,5.9748
2023-04-08T07:08:57.798Z,6.0332
2023-04-08T07:09:58.638Z,6.0712
2023-04-08T07:10:59.607Z,6.1549
2023-04-08T07:12:00.465Z,6.1749
2023-04-08T07:13:01.351Z,6.2306
2023-04-08T07:14:02.157Z,6.1893
2023-04-08T07:15:03.021Z,6.1208
2023-04-08T07:16:03.803Z,6.1786
2023-04-08T07:17:04.749Z,6.1852
2023-04-08T07:18:05.671Z,6.1824
2023-04-08T07:19:06.512Z,6.2343
2023-04-08T07:20:07.367Z,6.3159
2023-04-08T07:21:08.195Z,6.3362
2023-04-08T07:22:09.035Z,6.3709
2023-04-08T07:23:09.859Z,6.4689
2023-04-08T07:24:10.738Z,6.4925
2023-04-08T07:25:11.738Z,6.4120
2023-04-08T07:26:12.618Z,6.3819
2023-04-08T07:27:13.434Z,6.4762
2023-04-08T07:28:14.265Z,6.4543
2023-04-08T07:29:15.114Z,6.4924
2023-04-08T07:30:15.958Z,6.4207
2023-04-08T07:31:16.898Z,6.3659
2023-04-08T07:32:17.719Z,6.3374
2023-04-08T07:33:18.576Z,6.4155
2023-04-08T07:34:19.399Z,6.4770
2023-04-08T07:35:20.515Z,6.5165
2023-04-08T07:36:21.392Z,6.5104
2023-04-08T07:37:22.246Z,6.5569
2023-04-08T07:38:23.079Z,6.6202
2023-04-08T07:39:23.954Z,6.6534
2023-04-08T07:40:24.887Z,6.4906
2023-04-08T07:41:25.876Z,6.5329
2023-04-08T07:42:26.783Z,6.4620
2023-04-08T07:43:27.660Z,6.4413
2023-04-08T07:44:28.569Z,6.3573
2023-04-08T07:45:29.412Z,6.4144
2023-04-08T07:46:30.306Z,6.4608
2023-04-08T07:47:31.112Z,6.5094
2023-04-08T07:48:31.941Z,6.4285
2023-04-08T07:49:32.769Z,6.4819
2023-04-08T07:50:33.558Z,6.5800
2023-04-08T07:51:34.401Z,6.5821
2023-04-08T07:52:35.230Z,6.6554
2023-04-08T07:53:36.073Z,6.7398
2023-04-08T07:54:36.894Z,6.7796
2023-04-08T07:55:37.734Z,6.8618
2023-04-08T07:56:38.582Z,6.9505
2023-04-08T07:57:39.462Z,6.9534
2023-04-08T07:58:40.490Z,6.9243
2023-04-08T07:59:41.396Z,6.9154
2023-04-08T08:00:42.243Z,6.9989
2023-04-08T08:01:43.203Z,6.9879
2023-04-08T08:02:44.055Z,7.0278
2023-04-08T08:03:45.342Z,6.9010
2023-04-08T08:04:46.652Z,6.9964
2023-04-08T08:05:47.510Z,7.1278
2023-04-08T08:06:48.422Z,7.2225
2023-04-08T08:07:49.255Z,7.1375
2023-04-08T08:08:50.077Z,7.2037
2023-04-08T08:09:50.889Z,7.1555
2023-04-08T08:10:51.732Z,7.0822
2023-04-08T08:11:52.574Z,7.1988
2023-04-08T08:12:53.442Z,7.2281
2023-04-08T08:13:54.254Z,7.2869
2023-04-08T08:14:55.111Z,7.3389
2023-04-08T08:15:56.041Z,7.4226
2023-04-08T08:16:57.087Z,7.4179
2023-04-08T08:17:57.943Z,7.5316
2023-04-08T08:18:58.724Z,7.4181
2023-04-08T08:19:59.649Z,7.5436
2023-04-08T08:21:00.465Z,7.7444
2023-04-08T08:22:01.345Z,7.7329
2023-04-08T08:23:02.180Z,7.7105
2023-04-08T08:24:03.012Z,7.8663
2023-04-08T08:25:03.875Z,7.9870
2023-04-08T08:26:04.723Z,8.1024
2023-04-08T08:27:05.522Z,8.0394
2023-04-08T08:28:06.331Z,7.8094
2023-04-08T08:29:07.369Z,7.8873
2023-04-08T08:30:08.180Z,7.7834
2023-04-08T08:31:09.058Z,7.8147
2023-04-08T08:32:09.952Z,7.8985
2023-04-08T08:33:10.866Z,7.8845
2023-04-08T08:34:11.765Z,7.9823
2023-04-08T08:35:12.638Z,7.8280
2023-04-08T08:36:13.427Z,7.9003
2023-04-08T08:37:14.324Z,7.8381
2023-04-08T08:38:15.164Z,8.0028
2023-04-08T08:39:15.984Z,7.7823
2023-04-08T08:40:16.804Z,7.7885
2023-04-08T08:41:17.604Z,7.7164
2023-04-08T08:42:18.464Z,7.5497
2023-04-08T08:43:19.313Z,7.5837
2023-04-08T08:44:20.121Z,7.8069
2023-04-08T08:45:20.903Z,7.7788
2023-04-08T08:46:21.862Z,7.8064
2023-04-08T08:47:22.697Z,8.0017
2023-04-08T08:48:23.468Z,8.1073
2023-04-08T08:49:24.250Z,8.2622
2023-04-08T08:50:25.039Z,8.2884
2023-04-08T08:51:25.848Z,8.0396
2023-04-08T08:52:26.653Z,8.1734
2023-04-08T08:53:27.472Z,8.2092
2023-04-08T08:54:28.326Z,8.0467
2023-04-08T08:55:50.339Z,8.1857
2023-04-08T08:56:30.990Z,8.2910
2023-04-08T08:57:31.909Z,8.5888
2023-04-08T08:58:32.699Z,8.6194
2023-04-08T08:59:33.491Z,8.8207
2023-04-08T09:00:34.847Z,8.7312
2023-04-08T09:01:36.070Z,8.5941
2023-04-08T09:02:37.041Z,8.0963
2023-04-08T09:03:38.101Z,7.9545
2023-04-08T09:04:39.552Z,8.3183
2023-04-08T09:05:40.970Z,8.4482
2023-04-08T09:06:41.861Z,8.6405
2023-04-08T09:07:42.672Z,8.7646
2023-04-08T09:08:43.484Z,8.6504
2023-04-08T09:09:44.266Z,8.7251
2023-04-08T09:10:45.109Z,8.8573
2023-04-08T09:11:45.957Z,9.0248
2023-04-08T09:12:46.858Z,9.0912
2023-04-08T09:13:47.812Z,8.9658
2023-04-08T09:14:48.676Z,9.0221
2023-04-08T09:15:49.597Z,8.9409
2023-04-08T09:16:50.480Z,9.1252
2023-04-08T09:17:51.307Z,8.9245
2023-04-08T09:18:52.078Z,8.7429
2023-04-08T09:19:52.933Z,8.8296
2023-04-08T09:20:53.717Z,8.9675
2023-04-08T09:21:54.560Z,9.0112
2023-04-08T09:22:55.377Z,8.9501
2023-04-08T09:23:56.270Z,8.9817
2023-04-08T09:24:57.013Z,8.9879
2023-04-08T09:25:57.840Z,9.0252
2023-04-08T09:26:58.645Z,9.0016
2023-04-08T09:27:59.458Z,8.9038
2023-04-08T09:29:03.975Z,9.0302
2023-04-08T09:30:01.929Z,8.8259
2023-04-08T09:31:02.692Z,8.8924
2023-04-08T09:32:03.625Z,9.0196
2023-04-08T09:33:04.681Z,9.1947
2023-04-08T09:34:05.507Z,9.1792
2023-04-08T09:35:07.057Z,9.0754
2023-04-08T09:36:08.134Z,9.1094
2023-04-08T09:37:08.902Z,9.1421
2023-04-08T09:38:09.705Z,9.0502
2023-04-08T09:39:10.650Z,9.2022
2023-04-08T09:40:12.594Z,9.2858
2023-04-08T09:41:12.267Z,9.2612
2023-04-08T09:42:13.080Z,9.1386
2023-04-08T09:43:13.891Z,9.1374
2023-04-08T09:44:14.704Z,9.1983
2023-04-08T09:45:15.470Z,9.1244
2023-04-08T09:46:16.421Z,9.0204
2023-04-08T09:47:17.303Z,9.0546
2023-04-08T09:48:18.072Z,9.0981
2023-04-08T09:49:18.880Z,9.1306
2023-04-08T09:50:19.680Z,9.0970
2023-04-08T09:51:20.530Z,8.8287
2023-04-08T09:52:21.348Z,8.8971
2023-04-08T09:53:23.289Z,8.8007
2023-04-08T09:54:24.441Z,8.6914
2023-04-08T09:55:25.317Z,8.6981
2023-04-08T09:56:26.227Z,8.7452
2023-04-08T09:57:27.056Z,8.6941
2023-04-08T09:58:27.877Z,8.7497
2023-04-08T09:59:28.761Z,8.7459
2023-04-08T10:00:29.710Z,8.7929
2023-04-08T10:01:30.613Z,8.7795
2023-04-08T10:02:31.634Z,8.7507
2023-04-08T10:03:32.760Z,8.7706
2023-04-08T10:04:33.785Z,8.7544
2023-04-08T10:05:34.620Z,8.8579
2023-04-08T10:06:35.432Z,8.9202
2023-04-08T10:07:36.250Z,9.0318
2023-04-08T10:08:37.135Z,8.9468
2023-04-08T10:09:37.884Z,8.9330
2023-04-08T10:10:38.716Z,8.8693
2023-04-08T10:11:39.535Z,8.9510
2023-04-08T10:12:40.342Z,8.9944
2023-04-08T10:13:41.164Z,9.0018
2023-04-08T10:14:42.032Z,9.1250
2023-04-08T10:15:42.823Z,9.4156
2023-04-08T10:16:43.664Z,9.5480
2023-04-08T10:17:45.808Z,9.6498
2023-04-08T10:18:46.618Z,9.8474
2023-04-08T10:19:47.605Z,9.9795
2023-04-08T10:20:48.611Z,10.0123
2023-04-08T10:21:49.464Z,9.7281
2023-04-08T10:22:50.335Z,9.7951
2023-04-08T10:23:51.244Z,9.9995
2023-04-08T10:24:52.028Z,10.0179
2023-04-08T10:25:52.839Z,10.2771
2023-04-08T10:26:53.643Z,10.3933
2023-04-08T10:27:54.489Z,10.6519
2023-04-08T10:28:55.325Z,10.6272
2023-04-08T10:29:56.141Z,10.5596
2023-04-08T10:30:56.952Z,10.4611
2023-04-08T10:31:57.797Z,10.3730
2023-04-08T10:32:58.706Z,10.3122
2023-04-08T10:33:59.511Z,10.3919
2023-04-08T10:35:00.329Z,10.6078
2023-04-08T10:36:01.152Z,10.6987
2023-04-08T10:37:02.042Z,10.7967
2023-04-08T10:38:03.040Z,10.8484
2023-04-08T10:39:03.883Z,10.7804
2023-04-08T10:40:04.730Z,10.6025
2023-04-08T10:41:05.596Z,10.5624
2023-04-08T10:42:06.480Z,10.4783
2023-04-08T10:43:07.355Z,10.4853
2023-04-08T10:44:08.223Z,10.2380
2023-04-08T10:45:09.070Z,10.1235
2023-04-08T10:46:10.002Z,10.1693
2023-04-08T10:47:10.848Z,10.1486
2023-04-08T10:48:11.717Z,9.8854
2023-04-08T10:49:12.568Z,9.7214
2023-04-08T10:50:13.498Z,9.7955
2023-04-08T10:51:14.430Z,9.9992
2023-04-08T10:52:15.288Z,9.9467
2023-04-08T10:53:16.124Z,9.9671
2023-04-08T10:54:17.025Z,9.8464
2023-04-08T10:55:17.851Z,10.0104
2023-04-08T10:56:18.705Z,10.1563
2023-04-08T10:57:19.520Z,10.0933
2023-04-08T10:58:20.388Z,10.2529
2023-04-08T10:59:21.260Z,10.3228
2023-04-08T11:00:22.093Z,10.3639
2023-04-08T11:01:23.146Z,10.4417
2023-04-08T11:02:24.168Z,10.4850
2023-04-08T11:03:25.232Z,10.5077
2023-04-08T11:04:26.354Z,10.4704
2023-04-08T11:05:27.254Z,10.4152
2023-04-08T11:06:28.173Z,10.7778
2023-04-08T11:07:29.047Z,10.7724
2023-04-08T11:08:29.958Z,10.5955
2023-04-08T11:09:30.859Z,10.9633
2023-04-08T11:10:31.696Z,11.0616
2023-04-08T11:11:32.525Z,11.0363
2023-04-08T11:12:33.365Z,11.1306
2023-04-08T11:13:34.296Z,11.2192
2023-04-08T11:14:35.112Z,11.0475
2023-04-08T11:15:35.973Z,11.3585
2023-04-08T11:16:36.983Z,11.2952
2023-04-08T11:17:37.857Z,11.3802
2023-04-08T11:18:38.752Z,11.1304
2023-04-08T11:19:39.560Z,11.3869
2023-04-08T11:20:40.383Z,11.6764
2023-04-08T11:21:41.200Z,11.6144
2023-04-08T11:22:42.014Z,11.6021
2023-04-08T11:23:42.849Z,11.7464
2023-04-08T11:24:43.614Z,11.5735
2023-04-08T11:25:44.632Z,11.4499
2023-04-08T11:26:45.455Z,11.4249
2023-04-08T11:27:46.319Z,11.2878
2023-04-08T11:28:47.153Z,11.2936
2023-04-08T11:29:47.934Z,11.3967
2023-04-08T11:30:48.714Z,11.2835
2023-04-08T11:31:49.549Z,11.4599
2023-04-08T11:32:50.456Z,11.5346
2023-04-08T11:33:51.591Z,11.2964
2023-04-08T11:34:52.741Z,11.2504
2023-04-08T11:35:53.518Z,11.3757
2023-04-08T11:36:54.380Z,11.4508
2023-04-08T11:37:55.207Z,11.6524
2023-04-08T11:38:56.287Z,11.6737
2023-04-08T11:39:57.112Z,11.8453
2023-04-08T11:40:57.972Z,11.9450
2023-04-08T11:41:58.763Z,12.0733
2023-04-08T11:42:59.631Z,12.0771
2023-04-08T11:44:00.516Z,12.0204
2023-04-08T11:45:01.407Z,12.1638
2023-04-08T11:46:02.257Z,12.3021
2023-04-08T11:47:03.100Z,11.9564
2023-04-08T11:48:04.903Z,12.1607
2023-04-08T11:49:05.792Z,12.0205
2023-04-08T11:50:06.641Z,11.8003
2023-04-08T11:51:07.442Z,11.8157
2023-04-08T11:52:08.209Z,11.9206
2023-04-08T11:53:09.008Z,11.7985
2023-04-08T11:54:09.839Z,12.0781
2023-04-08T11:55:10.613Z,12.2092
2023-04-08T11:56:11.419Z,12.3527
2023-04-08T11:57:12.208Z,12.2611
2023-04-08T11:58:13.040Z,12.3567
2023-04-08T11:59:13.870Z,12.2715
2023-04-08T12:00:14.730Z,12.1774
2023-04-08T12:01:15.477Z,12.2685
2023-04-08T12:02:16.374Z,12.1893
2023-04-08T12:03:17.329Z,12.0914
2023-04-08T12:04:18.252Z,12.3068
2023-04-08T12:05:19.076Z,12.3372
2023-04-08T12:06:19.870Z,12.2983
2023-04-08T12:07:20.704Z,12.0709
2023-04-08T12:08:21.616Z,11.8629
2023-04-08T12:09:22.461Z,11.7501
2023-04-08T12:10:23.322Z,11.3948
2023-04-08T12:11:24.107Z,11.4904
2023-04-08T12:12:25.041Z,11.4946
2023-04-08T12:13:26.054Z,11.3953
2023-04-08T12:14:28.388Z,11.4075
2023-04-08T12:15:27.786Z,11.2769
2023-04-08T12:16:28.665Z,11.2629
2023-04-08T12:17:29.641Z,11.1221
2023-04-08T12:18:30.434Z,11.0341
2023-04-08T12:19:33.534Z,10.9909
2023-04-08T12:20:32.467Z,10.8527
2023-04-08T12:21:33.277Z,10.8281
2023-04-08T12:22:34.120Z,10.6948
2023-04-08T12:23:35.149Z,10.5207
2023-04-08T12:24:35.917Z,10.3344
2023-04-08T12:25:36.701Z,10.2194
2023-04-08T12:26:37.585Z,10.1468
2023-04-08T12:27:38.448Z,10.0770
2023-04-08T12:28:39.348Z,10.0383
2023-04-08T12:29:40.133Z,10.0860
2023-04-08T12:30:41.019Z,10.0448
2023-04-08T12:31:41.887Z,10.0818
2023-04-08T12:32:42.750Z,9.9417
2023-04-08T12:33:43.692Z,9.9019
2023-04-08T12:34:44.579Z,9.8763